This is the latest recevied weather packets stored in our database for station/object DB0LC-2. If no packets are shown the sender has not sent any weather packets the latest 1 day(s).
| Time | Temp. | Humidity | Pressure | Rain* | Wind** | Luminosity | Snow |
|---|---|---|---|---|---|---|---|
| 1836274560 | 20.56° C | 60% | 920 hPa | 0 mm | 0 m/s | - | - |
| 1836273962 | 20° C | 58% | 920.2 hPa | 0 mm | 0 m/s | - | - |
| 1778004825 | 20° C | 32% | 906 hPa | 0 mm | 0 m/s | - | - |
| 1778004200 | 19.44° C | 33% | 905.8 hPa | 0 mm | 0 m/s | - | - |
| 1778003575 | 19.44° C | 32% | 905.5 hPa | 0 mm | 0 m/s | - | - |
| 1778002950 | 20° C | 31% | 905.5 hPa | 0 mm | 0 m/s | - | - |
| 1778002301 | 19.44° C | 32% | 905.5 hPa | 0 mm | 0 m/s | - | - |
| 1778001064 | 19.44° C | 30% | 905.3 hPa | 0 mm | 0 m/s | - | - |
| 1778000432 | 20° C | 32% | 905.2 hPa | 0 mm | 0 m/s | - | - |
| 1778000430 | 20° C | 32% | 905.2 hPa | 0 mm | 0 m/s | - | - |
| 1777999803 | 19.44° C | 32% | 905 hPa | 0 mm | 0 m/s | - | - |
| 1777999151 | 19.44° C | 32% | 905 hPa | 0 mm | 0 m/s | - | - |
| 1777998506 | 19.44° C | 30% | 905 hPa | 0 mm | 0 m/s | - | - |
| 1777998504 | 19.44° C | 30% | 905.1 hPa | 0 mm | 0 m/s | - | - |
| 1777997227 | 19.44° C | 32% | 904.8 hPa | 0 mm | 0 m/s | - | - |
| 1777996586 | 19.44° C | 30% | 904.8 hPa | 0 mm | 0 m/s | - | - |
| 1777996584 | 19.44° C | 30% | 904.7 hPa | 0 mm | 0 m/s | - | - |
| 1777995936 | 19.44° C | 32% | 904.8 hPa | 0 mm | 0 m/s | - | - |
| 1777994683 | 19.44° C | 30% | 904.8 hPa | 0 mm | 0 m/s | - | - |
| 1777994082 | 20° C | 32% | 904.8 hPa | 0 mm | 0 m/s | - | - |
| 1777993456 | 19.44° C | 32% | 904.8 hPa | 0 mm | 0 m/s | - | - |
| 1777992859 | 19.44° C | 32% | 904.8 hPa | 0 mm | 0 m/s | - | - |
| 1777992231 | 20° C | 31% | 904.9 hPa | 0 mm | 0 m/s | - | - |
| 1777990973 | 19.44° C | 32% | 905 hPa | 0 mm | 0 m/s | - | - |
| 1777990972 | 19.44° C | 32% | 904.9 hPa | 0 mm | 0 m/s | - | - |
* Rain latest hour (hover to see other rain measurements)
** Current wind speed in m/s (hover to see current wind gust speed)